createdAt,value
2022-08-04T04:39:01.174Z,20.27
2022-08-04T04:41:54.675Z,20.28
2022-08-04T05:03:01.739Z,20.46
2022-08-04T05:06:08.348Z,20.56
2022-08-04T05:09:12.931Z,20.62
2022-08-04T05:11:43.832Z,20.75
2022-08-04T05:14:41.480Z,20.77
2022-08-04T05:17:30.275Z,20.84
2022-08-04T05:20:27.478Z,20.90
2022-08-04T05:23:13.299Z,21.08
2022-08-04T05:25:59.437Z,21.10
2022-08-04T05:28:34.405Z,21.11
2022-08-04T05:31:08.957Z,21.11
2022-08-04T05:33:51.564Z,21.31
2022-08-04T05:36:41.076Z,21.41
2022-08-04T05:39:17.291Z,21.44
2022-08-04T05:42:12.772Z,21.49
2022-08-04T05:44:46.337Z,21.51
2022-08-04T05:47:17.403Z,21.55
2022-08-04T05:49:45.645Z,21.70
2022-08-04T05:52:30.415Z,21.79
2022-08-04T05:55:00.443Z,21.83
2022-08-04T06:03:00.649Z,22.17
2022-08-04T06:05:33.399Z,22.17
2022-08-04T06:08:12.248Z,22.24
2022-08-04T06:25:53.919Z,22.95
2022-08-04T06:59:28.645Z,24.12
2022-08-04T07:12:57.316Z,24.60
2022-08-04T17:37:52.627Z,25.41
2022-08-04T17:40:25.271Z,25.38
2022-08-04T17:44:01.401Z,25.26
2022-08-04T17:46:28.858Z,25.22
2022-08-04T17:49:23.162Z,25.19
2022-08-04T17:52:15.399Z,25.09
2022-08-04T17:55:02.821Z,25.17
2022-08-04T17:57:31.132Z,25.15
2022-08-04T18:01:10.663Z,24.91
2022-08-04T18:04:38.144Z,24.85
2022-08-04T18:12:36.839Z,24.72
2022-08-04T18:15:22.956Z,24.81
2022-08-04T18:18:20.671Z,24.78
2022-08-04T18:20:47.198Z,24.61
2022-08-04T18:23:19.042Z,24.64
2022-08-04T18:32:04.515Z,24.41
2022-08-04T18:38:06.156Z,24.28
2022-08-04T18:43:16.885Z,24.20
2022-08-04T18:45:57.979Z,24.20
2022-08-04T18:48:37.335Z,24.18
2022-08-04T18:51:23.257Z,24.16
2022-08-04T18:53:58.937Z,24.10
2022-08-04T18:56:29.810Z,24.06
2022-08-04T18:59:01.647Z,24.00
2022-08-04T19:02:13.065Z,23.92
2022-08-04T19:04:33.076Z,23.89
2022-08-04T19:07:24.624Z,23.82
2022-08-04T19:09:53.745Z,23.78
2022-08-04T19:12:26.703Z,23.81
2022-08-04T19:15:08.864Z,23.68
2022-08-04T19:17:53.744Z,23.74
2022-08-04T19:20:31.107Z,23.63
2022-08-04T19:24:28.244Z,23.61
2022-08-04T19:25:59.060Z,23.42
2022-08-04T19:28:34.015Z,23.52
2022-08-04T19:31:05.496Z,23.48
2022-08-04T19:33:58.897Z,23.41
2022-08-04T19:36:35.018Z,23.37
2022-08-04T19:39:11.518Z,23.31
2022-08-04T19:42:04.806Z,23.27
2022-08-04T19:44:53.131Z,23.27
2022-08-04T19:50:19.278Z,23.16
2022-08-04T19:52:51.885Z,23.20
2022-08-04T19:58:29.034Z,23.14
2022-08-04T20:00:57.048Z,23.10
2022-08-04T20:04:09.086Z,23.07
2022-08-04T20:06:13.279Z,23.02
2022-08-04T20:08:47.944Z,22.99
2022-08-04T20:11:18.556Z,22.96
2022-08-04T20:18:06.986Z,22.85
2022-08-04T20:20:46.068Z,22.85
2022-08-04T20:23:47.943Z,22.75
2022-08-04T20:26:10.957Z,22.78
2022-08-04T20:28:45.835Z,22.66
2022-08-04T20:31:18.415Z,22.57
2022-08-04T20:33:54.923Z,22.54
2022-08-04T20:36:23.438Z,22.55
2022-08-04T20:38:53.215Z,22.57
2022-08-04T20:41:21.897Z,22.55
2022-08-04T20:43:49.689Z,22.52
2022-08-04T20:46:29.079Z,22.49
2022-08-04T20:49:23.115Z,22.51
2022-08-04T20:52:14.736Z,22.45
2022-08-04T20:54:56.221Z,22.48
2022-08-04T21:00:40.861Z,22.37
2022-08-04T21:03:59.904Z,22.35
2022-08-04T21:06:34.015Z,22.27
2022-08-04T21:09:00.929Z,22.20
2022-08-04T21:14:29.476Z,22.09
2022-08-04T21:16:58.537Z,22.10
2022-08-04T21:22:29.752Z,22.17
2022-08-04T21:28:20.070Z,21.89
2022-08-04T21:30:52.809Z,21.92
2022-08-04T21:33:24.461Z,21.63
2022-08-04T21:36:37.166Z,21.83
2022-08-04T21:39:05.705Z,21.83
2022-08-04T21:42:19.876Z,21.77
2022-08-04T21:44:38.033Z,21.80
2022-08-04T21:47:05.105Z,21.70
2022-08-04T21:49:56.341Z,21.70
2022-08-04T21:52:25.027Z,21.66
2022-08-04T21:54:54.102Z,21.62
2022-08-04T21:57:28.121Z,21.41
2022-08-04T22:00:00.965Z,21.52
2022-08-04T22:02:39.963Z,21.48
2022-08-04T22:05:34.888Z,21.51
2022-08-04T22:08:19.714Z,21.34
2022-08-04T22:10:47.050Z,21.51
2022-08-04T22:13:22.803Z,21.48
2022-08-04T22:16:04.471Z,21.44
2022-08-04T22:18:38.917Z,21.39
2022-08-04T22:21:09.629Z,21.32
2022-08-04T22:23:45.123Z,21.17
2022-08-04T22:26:20.078Z,21.34
2022-08-04T22:29:01.362Z,21.27
2022-08-04T22:31:53.123Z,21.26
2022-08-04T22:34:25.207Z,21.21
2022-08-04T22:36:53.732Z,21.07
2022-08-04T22:39:23.465Z,21.14
2022-08-04T22:42:04.186Z,21.24
2022-08-04T22:44:38.088Z,21.20
2022-08-04T22:47:10.190Z,21.15
2022-08-04T22:50:26.715Z,21.12
2022-08-04T22:52:55.177Z,21.06
2022-08-04T22:55:23.011Z,21.08
2022-08-04T23:01:12.434Z,20.97
2022-08-04T23:03:50.871Z,20.94
2022-08-04T23:06:25.497Z,20.96
2022-08-04T23:08:57.820Z,20.91
2022-08-04T23:11:35.255Z,20.87
2022-08-04T23:14:28.977Z,20.86
2022-08-04T23:16:56.949Z,20.82
2022-08-04T23:22:16.850Z,20.87
2022-08-04T23:25:05.462Z,20.87
2022-08-04T23:27:40.239Z,20.66
2022-08-04T23:30:09.417Z,20.69
2022-08-04T23:32:36.808Z,20.72
2022-08-04T23:38:30.563Z,20.69
2022-08-04T23:41:13.297Z,20.52
2022-08-04T23:43:54.915Z,20.55
2022-08-04T23:46:28.278Z,20.62
2022-08-04T23:48:57.041Z,20.57
2022-08-04T23:51:49.787Z,20.53
2022-08-04T23:54:16.839Z,20.44
2022-08-04T23:56:58.888Z,20.41
2022-08-04T23:59:51.694Z,20.48
